ADDS METAR Data INFO
IDs: Format: Raw Decoded Include TAF

Data at: 0314 UTC 22 Apr 2018

KVAF 220255Z AUTO 16019KT 4SM HZ CLR 24/21 A2994 RMK A01
KVAF 220235Z AUTO 16020KT 4SM HZ SCT065 24/20 A2995 RMK A01
KVAF 220215Z AUTO 17018KT 3SM HZ SCT065 24/20 A2995 RMK A01
KVAF 220155Z AUTO 16017KT 3SM HZ FEW018 24/21 A2995 RMK A01
KVAF 220135Z AUTO 15018KT 5SM HZ CLR 24/20 A2993 RMK A01
KVAF 220115Z AUTO 15018KT 5SM HZ FEW020 24/20 A2993 RMK A01
KVAF 220055Z AUTO 14017KT 3SM HZ FEW020 24/20 A2993 RMK A01
KVAF 220035Z AUTO 14018KT 3SM HZ FEW020 24/20 A2993 RMK A01
KVAF 220015Z AUTO 14018KT 3SM HZ FEW018 24/20 A2992 RMK A01
KVAF 212355Z AUTO 14016KT 4SM HZ FEW018 24/20 A2993 RMK A01
KVAF 212335Z AUTO 15015KT 3SM HZ FEW018 24/20 A2993 RMK A01
KVAF 212315Z AUTO 15015KT 4SM HZ FEW019 24/20 A2994 RMK A01
KVAF 212255Z AUTO 16014KT 4SM HZ FEW019 24/20 A2995 RMK A01
KVAF 212235Z AUTO 16015KT 4SM HZ CLR 24/20 A2995 RMK A01
KVAF 212215Z AUTO 16014KT 4SM HZ CLR 24/20 A2995 RMK A01
KVAF 212155Z AUTO 16013KT 3SM HZ FEW049 24/20 A2995 RMK A01
KVAF 212135Z AUTO 16015KT 4SM HZ FEW050 24/19 A2995 RMK A01
KVAF 212115Z AUTO 17015KT 3SM HZ BKN049 24/19 A2996 RMK A01
KVAF 212055Z AUTO 18015KT 4SM HZ SCT049 24/19 A2997 RMK A01
KVAF 212035Z AUTO 17013KT 4SM HZ CLR 24/20 A2998 RMK A01
KVAF 212015Z AUTO 20016KT 4SM HZ CLR 24/19 A2999 RMK A01
KVAF 211955Z AUTO 20016KT 5SM HZ SCT042 24/19 A2999 RMK A01
KVAF 211935Z AUTO 21018KT 4SM HZ BKN034 BKN042 24/19 A3000 RMK A01
KVAF 211915Z AUTO 19017KT 5SM HZ FEW025 BKN032 BKN038 24/19 A3000 RMK A01
KVAF 211855Z AUTO 17017KT 4SM HZ SCT025 SCT029 24/19 A3000 RMK A01
KVAF 211835Z AUTO 16017KT 4SM HZ FEW025 24/19 A2999 RMK A01
KVAF 211815Z AUTO 16016KT 6SM HZ BKN024 BKN028 24/19 A3000 RMK A01
KVAF 211755Z AUTO 14017KT 5SM HZ BKN023 BKN030 24/19 A2999 RMK A01
KVAF 211735Z AUTO 18012KT 5SM HZ SCT023 BKN032 24/19 A3002 RMK A01
KVAF 211715Z AUTO 19014KT 5SM HZ FEW024 BKN032 24/18 A3003 RMK A01
KVAF 211655Z AUTO 18014KT 4SM HZ SCT025 SCT031 24/19 A3004 RMK A01
KVAF 211635Z AUTO 19015KT 4SM HZ FEW029 24/18 A3005 RMK A01
KVAF 211615Z AUTO 18015KT 4SM HZ FEW025 FEW031 24/18 A3005 RMK A01
KVAF 211555Z AUTO 18015KT 4SM HZ FEW025 FEW032 24/18 A3005 RMK A01
KVAF 211535Z AUTO 18017KT 4SM HZ SCT025 SCT032 24/18 A3004 RMK A01
KVAF 211515Z AUTO 17017KT 5SM HZ FEW025 FEW031 24/18 A3004 RMK A01
KVAF 211455Z AUTO 16016G21KT 4SM HZ FEW023 24/18 A3004 RMK A01
KVAF 211435Z AUTO 17018KT 5SM HZ FEW023 24/18 A3002 RMK A01
KVAF 211415Z AUTO 16020KT 5SM HZ SCT024 SCT030 24/18 A3001 RMK A01
KVAF 211355Z AUTO 16018KT 5SM HZ SCT024 24/19 A3001 RMK A01
KVAF 211335Z AUTO 15017KT 4SM HZ FEW024 FEW031 24/18 A3001 RMK A01
KVAF 211315Z AUTO 16019KT 4SM HZ SCT022 SCT029 23/18 A3000 RMK A01
KVAF 211255Z AUTO 17020KT 4SM HZ FEW022 FEW029 23/19 A3000 RMK A01
KVAF 211235Z AUTO 15019KT 4SM HZ SCT022 SCT029 23/18 A2999 RMK A01
KVAF 211215Z AUTO 15021KT 4SM HZ SCT021 SCT028 BKN033 23/19 A2998 RMK A01
KVAF 211155Z AUTO 16020KT 5SM HZ FEW021 SCT028 23/19 A2998 RMK A01
KVAF 211135Z AUTO 16017KT 5SM HZ FEW021 FEW026 23/19 A2998 RMK A01
KVAF 211115Z AUTO 16018KT 6SM HZ SCT022 SCT029 SCT038 23/19 A2997 RMK A01
KVAF 211055Z AUTO 16019KT 5SM HZ FEW021 SCT028 SCT037 23/19 A2998 RMK A01
KVAF 211035Z AUTO 16018KT 5SM HZ SCT022 SCT030 SCT037 23/19 A2998 RMK A01
KVAF 211015Z AUTO 16018KT 5SM HZ FEW024 SCT029 23/19 A2998 RMK A01
KVAF 210955Z AUTO 16016KT 6SM HZ SCT021 SCT027 23/19 A2998 RMK A01
KVAF 210935Z AUTO 15016KT 5SM HZ SCT021 BKN028 BKN034 23/19 A2998 RMK A01
KVAF 210915Z AUTO 15015KT 5SM HZ SCT021 BKN031 23/19 A2999 RMK A01
KVAF 210855Z AUTO 15015KT 6SM HZ FEW022 FEW031 23/19 A3000 RMK A01
KVAF 210835Z AUTO 16016KT 5SM HZ CLR 23/19 A2999 RMK A01
KVAF 210815Z AUTO 15016KT 5SM HZ FEW031 23/18 A2999 RMK A01
KVAF 210755Z AUTO 17017KT 5SM HZ CLR 23/19 A3000 RMK A01
KVAF 210735Z AUTO 16018KT 5SM HZ FEW020 FEW029 FEW034 23/19 A3000 RMK A01
KVAF 210715Z AUTO 14016KT 5SM HZ SCT021 SCT033 23/19 A3001 RMK A01
KVAF 210655Z AUTO 15015KT 6SM HZ SCT022 23/19 A3002 RMK A01
KVAF 210635Z AUTO 15018KT 6SM HZ SCT021 SCT027 23/18 A3003 RMK A01
KVAF 210615Z AUTO 16018KT 5SM HZ FEW021 SCT028 23/19 A3004 RMK A01
KVAF 210555Z AUTO 15019KT 5SM HZ FEW021 23/19 A3005 RMK A01
KVAF 210535Z AUTO 15019KT 5SM HZ FEW022 FEW032 23/18 A3004 RMK A01
KVAF 210515Z AUTO 15020KT 5SM HZ SCT020 BKN025 BKN032 23/19 A3004 RMK A01
KVAF 210455Z AUTO 15021KT 5SM HZ SCT019 BKN024 23/19 A3004 RMK A01
KVAF 210435Z AUTO 14021KT 5SM HZ SCT019 BKN024 23/20 A3003 RMK A01
KVAF 210415Z AUTO 13021KT 5SM HZ FEW018 SCT023 23/20 A3006 RMK A01
KVAF 210355Z AUTO 13022KT 5SM HZ SCT020 23/19 A3005 RMK A01
KVAF 210335Z AUTO 13020KT 4SM HZ FEW023 23/19 A3007 RMK A01
KVAF 210315Z AUTO 12019KT 5SM HZ FEW021 23/19 A3007 RMK A01
KVAF 210255Z AUTO 12019KT FEW020 23/19 A3007 RMK A01
KVAF 210235Z AUTO 12018KT 5SM HZ SCT019 SCT025 SCT034 23/19 A3008 RMK A01
KVAF 210215Z AUTO 11016KT 6SM HZ FEW019 SCT023 BKN032 23/19 A3009 RMK A01
KVAF 210155Z AUTO 11015KT 5SM HZ SCT021 BKN028 OVC035 23/19 A3010 RMK A01
KVAF 210135Z AUTO 10015KT 5SM HZ SCT020 BKN028 BKN034 23/19 A3010 RMK A01
KVAF 210115Z AUTO 10014KT 5SM HZ BKN020 BKN025 BKN029 22/19 A3010 RMK A01
KVAF 210055Z AUTO 10015KT 4SM HZ SCT022 22/19 A3008 RMK A01
KVAF 210035Z AUTO 10016KT 4SM HZ FEW021 22/18 A3008 RMK A01
KVAF 210015Z AUTO 09013KT 4SM HZ FEW020 22/18 A3009 RMK A01
KVAF 202355Z AUTO 10011KT 4SM HZ FEW019 SCT024 22/18 A3009 RMK A01
KVAF 202335Z AUTO 10013KT 4SM HZ BKN022 BKN028 22/18 A3009 RMK A01
KVAF 202315Z AUTO 10013KT 4SM HZ SCT020 BKN026 22/18 A3008 RMK A01
KVAF 202255Z AUTO 09014KT 4SM HZ FEW019 22/18 A3008 RMK A01
KVAF 202235Z AUTO 10014KT 3SM HZ SCT019 22/18 A3008 RMK A01
KVAF 202215Z AUTO 10012KT 4SM HZ FEW020 22/18 A3009 RMK A01
KVAF 202155Z AUTO 10014KT 4SM HZ FEW020 22/18 A3009 RMK A01
KVAF 202135Z AUTO 10014KT 5SM HZ SCT020 SCT025 22/17 A3009 RMK A01
KVAF 202115Z AUTO 10013KT 4SM HZ SCT019 BKN026 22/17 A3011 RMK A01
KVAF 202055Z AUTO 10013KT 5SM HZ FEW020 SCT027 22/17 A3012 RMK A01
KVAF 202035Z AUTO 10014KT 5SM HZ SCT022 SCT029 22/17 A3012 RMK A01
KVAF 202015Z AUTO 10013KT 4SM HZ FEW021 BKN027 22/17 A3014 RMK A01
KVAF 201955Z AUTO 11014KT 5SM HZ BKN025 BKN029 22/17 A3014 RMK A01
KVAF 201935Z AUTO 11015KT 5SM HZ SCT024 SCT030 22/16 A3015 RMK A01
KVAF 201915Z AUTO 11013KT 5SM HZ SCT026 21/16 A3016 RMK A01
KVAF 201855Z AUTO 11013KT 5SM HZ FEW025 22/16 A3017 RMK A01
KVAF 201835Z AUTO 10013KT 4SM HZ FEW024 22/16 A3018 RMK A01
KVAF 201815Z AUTO 09011KT 5SM HZ FEW024 22/16 A3018 RMK A01
KVAF 201755Z AUTO 09012KT 6SM HZ FEW024 21/15 A3020 RMK A01
KVAF 201735Z AUTO 09015KT 6SM HZ CLR 21/15 A3019 RMK A01
KVAF 201715Z AUTO 09014KT 6SM HZ FEW028 21/15 A3020 RMK A01
KVAF 201655Z AUTO 09012KT 7SM FEW029 21/15 A3021 RMK A01
KVAF 201635Z AUTO 09013KT 6SM HZ FEW029 21/15 A3022 RMK A01
KVAF 201615Z AUTO 09013KT 5SM HZ FEW029 21/14 A3022 RMK A01
KVAF 201555Z AUTO 08013KT 6SM HZ FEW029 21/14 A3022 RMK A01
KVAF 201535Z AUTO 08014KT 6SM HZ FEW028 21/15 A3021 RMK A01
KVAF 201515Z AUTO 07013KT 6SM HZ FEW030 21/14 A3021 RMK A01